Time;durP1;ratioP1;P1;durP2;ratioP2;P2;SDS_P1;SDS_P2;PMS_P1;PMS_P2;Temp;Humidity;BMP_temperature;BMP_pressure;BME280_temperature;BME280_humidity;BME280_pressure;Samples;Min_cycle;Max_cycle;Signal;HPM_P1;HPM_P2
2021/12/11 00:00:23;;;;;;;1.97;1.60;;;2.80;99.90;;;;;;5011028;28;20688;-77
2021/12/11 00:03:07;;;;;;;2.07;1.87;;;2.80;99.90;;;;;;5011667;28;20189;-77
2021/12/11 00:05:35;;;;;;;1.70;1.60;;;2.70;99.90;;;;;;5011745;28;20188;-77
2021/12/11 00:08:03;;;;;;;2.10;1.90;;;2.70;99.90;;;;;;5011503;28;20204;-77
2021/12/11 00:10:41;;;;;;;1.93;1.83;;;2.70;99.90;;;;;;5011165;28;20196;-78
2021/12/11 00:13:11;;;;;;;2.83;2.10;;;2.70;99.90;;;;;;5011901;28;20254;-77
2021/12/11 00:15:42;;;;;;;2.10;1.77;;;2.70;99.90;;;;;;5012011;28;20260;-78
2021/12/11 00:18:12;;;;;;;1.70;1.60;;;2.70;99.90;;;;;;5011689;28;20176;-78
2021/12/11 00:20:43;;;;;;;2.73;1.60;;;2.70;99.90;;;;;;5013623;28;20199;-77
2021/12/11 00:23:09;;;;;;;3.03;2.10;;;2.70;99.90;;;;;;5015501;28;20176;-78
2021/12/11 00:25:44;;;;;;;1.97;1.63;;;2.70;99.90;;;;;;5015467;28;20173;-79
2021/12/11 00:28:10;;;;;;;1.60;1.50;;;2.70;99.90;;;;;;5015745;28;20212;-78
2021/12/11 00:30:41;;;;;;;1.70;1.60;;;2.70;99.90;;;;;;5015355;28;20720;-77
2021/12/11 00:33:18;;;;;;;1.73;1.63;;;2.70;99.90;;;;;;5015590;28;20649;-76
2021/12/11 00:35:44;;;;;;;1.43;1.33;;;2.70;99.90;;;;;;5015277;28;20203;-78
2021/12/11 00:38:15;;;;;;;4.23;1.87;;;2.70;99.90;;;;;;5015312;28;20173;-77
2021/12/11 00:40:43;;;;;;;4.87;1.80;;;2.70;99.90;;;;;;5014640;28;20231;-77
2021/12/11 00:43:15;;;;;;;3.33;1.80;;;2.70;99.90;;;;;;5015109;28;20180;-77
2021/12/11 00:45:42;;;;;;;1.40;1.30;;;2.70;99.90;;;;;;5015199;28;20185;-77
2021/12/11 00:48:14;;;;;;;1.47;1.37;;;2.80;99.90;;;;;;5014900;28;20212;-77
2021/12/11 00:50:54;;;;;;;1.63;1.50;;;2.80;99.90;;;;;;5014876;28;20239;-78
2021/12/11 00:53:32;;;;;;;2.77;1.80;;;2.80;99.90;;;;;;5015172;28;20184;-77
2021/12/11 00:56:13;;;;;;;2.17;1.70;;;2.80;99.90;;;;;;5015181;28;20695;-77
2021/12/11 00:58:41;;;;;;;1.50;1.40;;;2.80;99.90;;;;;;5014985;28;20188;-77
2021/12/11 01:01:06;;;;;;;2.03;1.50;;;2.80;99.90;;;;;;5014065;28;20283;-76
2021/12/11 01:03:46;;;;;;;2.13;1.80;;;2.80;99.90;;;;;;5014770;28;20259;-78
2021/12/11 01:06:23;;;;;;;2.17;1.60;;;2.80;99.90;;;;;;5014419;28;20203;-78
2021/12/11 01:08:58;;;;;;;2.23;1.70;;;2.80;99.90;;;;;;5014922;28;20183;-78
2021/12/11 01:11:53;;;;;;;1.90;1.50;;;2.80;99.90;;;;;;5014366;28;20275;-77
2021/12/11 01:14:52;;;;;;;2.53;1.53;;;2.80;99.90;;;;;;5010532;28;20532;-78
2021/12/11 01:17:36;;;;;;;1.53;1.43;;;2.80;99.90;;;;;;5014895;28;20208;-78
2021/12/11 01:20:07;;;;;;;1.90;1.70;;;2.80;99.90;;;;;;5013880;28;20545;-78
2021/12/11 01:22:36;;;;;;;1.80;1.67;;;2.80;99.90;;;;;;5014499;28;20514;-78
2021/12/11 01:25:10;;;;;;;2.37;1.80;;;2.80;99.90;;;;;;5014165;28;20177;-78
2021/12/11 01:27:40;;;;;;;2.80;1.80;;;2.80;99.90;;;;;;5014404;28;20623;-79
2021/12/11 01:30:09;;;;;;;4.40;3.43;;;2.80;99.90;;;;;;5013675;28;20875;-78
2021/12/11 01:32:36;;;;;;;1.73;1.63;;;2.80;99.90;;;;;;5014418;28;20179;-78
2021/12/11 01:35:06;;;;;;;1.73;1.60;;;2.80;99.90;;;;;;5014326;28;20208;-78
2021/12/11 01:37:31;;;;;;;2.10;1.77;;;2.90;99.90;;;;;;5013935;28;20181;-79
2021/12/11 01:39:57;;;;;;;4.97;1.67;;;2.90;99.90;;;;;;5013858;28;20259;-77
2021/12/11 01:42:30;;;;;;;2.07;1.70;;;2.90;99.90;;;;;;5014407;28;20173;-78
2021/12/11 01:44:58;;;;;;;3.90;2.07;;;2.90;99.90;;;;;;5014157;28;20176;-77
2021/12/11 01:47:30;;;;;;;1.97;1.77;;;2.90;99.90;;;;;;5013734;28;20629;-78
2021/12/11 01:50:07;;;;;;;2.83;2.13;;;2.90;99.90;;;;;;5013241;28;20266;-78
2021/12/11 01:52:39;;;;;;;2.00;1.80;;;2.90;99.90;;;;;;5013591;28;20653;-78
2021/12/11 01:55:17;;;;;;;2.70;1.90;;;2.90;99.90;;;;;;5013893;28;20540;-77
2021/12/11 01:57:50;;;;;;;1.93;1.70;;;2.90;99.90;;;;;;5014307;28;20220;-77
2021/12/11 02:00:22;;;;;;;1.70;1.60;;;2.90;99.90;;;;;;5013315;28;20204;-77
2021/12/11 02:02:53;;;;;;;3.37;2.30;;;2.90;99.90;;;;;;5013421;28;20172;-78
2021/12/11 02:05:32;;;;;;;1.80;1.70;;;3.00;99.90;;;;;;5013677;28;20184;-77
2021/12/11 02:08:00;;;;;;;2.10;1.90;;;3.00;99.90;;;;;;5013316;28;20216;-78
2021/12/11 02:10:40;;;;;;;1.80;1.70;;;3.00;99.90;;;;;;5013737;28;20196;-78
2021/12/11 02:13:09;;;;;;;2.40;1.90;;;3.00;99.90;;;;;;5014688;28;20183;-78
2021/12/11 02:15:44;;;;;;;1.77;1.67;;;3.00;99.90;;;;;;5015658;28;20203;-77
2021/12/11 02:18:32;;;;;;;1.90;1.80;;;3.00;99.90;;;;;;5013059;28;20664;-77
2021/12/11 02:21:03;;;;;;;2.10;1.90;;;3.00;99.90;;;;;;5012331;28;20192;-77
2021/12/11 02:23:29;;;;;;;2.07;1.83;;;3.00;99.90;;;;;;5012452;28;20699;-77
2021/12/11 02:26:01;;;;;;;1.60;1.50;;;3.00;99.90;;;;;;5012712;28;20176;-77
2021/12/11 02:28:36;;;;;;;3.47;1.80;;;3.10;99.90;;;;;;5012447;28;20648;-77
2021/12/11 02:31:35;;;;;;;2.70;2.03;;;3.00;99.90;;;;;;5012211;28;20192;-77
2021/12/11 02:34:08;;;;;;;2.93;2.63;;;2.90;99.90;;;;;;5012808;28;20259;-77
2021/12/11 02:36:38;;;;;;;2.50;2.30;;;2.60;99.90;;;;;;5012904;28;20255;-77
2021/12/11 02:39:29;;;;;;;2.90;2.10;;;2.50;99.90;;;;;;5013088;28;20183;-78
2021/12/11 02:42:01;;;;;;;1.90;1.80;;;2.30;99.90;;;;;;5012431;28;20258;-77
2021/12/11 02:44:32;;;;;;;1.60;1.50;;;2.20;99.90;;;;;;5012886;28;20179;-78
2021/12/11 02:47:03;;;;;;;1.80;1.50;;;2.10;99.90;;;;;;5012892;28;20242;-77
2021/12/11 02:49:35;;;;;;;1.53;1.30;;;1.90;99.90;;;;;;5012288;28;20250;-76
2021/12/11 02:52:06;;;;;;;1.40;1.30;;;1.80;99.90;;;;;;5012829;28;20207;-77
2021/12/11 02:54:44;;;;;;;1.83;1.73;;;1.70;99.90;;;;;;5012763;28;20177;-77
2021/12/11 02:57:23;;;;;;;1.50;1.40;;;1.60;99.90;;;;;;5011215;28;20187;-76
2021/12/11 02:59:49;;;;;;;1.97;1.40;;;1.60;99.90;;;;;;5012041;28;20184;-77
2021/12/11 03:02:24;;;;;;;1.40;1.30;;;1.60;99.90;;;;;;5012602;28;20180;-77
2021/12/11 03:04:55;;;;;;;1.30;1.20;;;1.50;99.90;;;;;;5012396;28;20206;-77
2021/12/11 03:07:36;;;;;;;1.57;1.47;;;1.60;99.90;;;;;;5012210;28;20215;-77
2021/12/11 03:10:08;;;;;;;1.80;1.63;;;1.60;99.90;;;;;;5011754;28;20672;-77
2021/12/11 03:12:34;;;;;;;1.63;1.53;;;1.60;99.90;;;;;;5012377;28;20188;-77
2021/12/11 03:14:59;;;;;;;1.77;1.67;;;1.60;99.90;;;;;;5012862;28;20180;-77
2021/12/11 03:17:27;;;;;;;2.80;2.60;;;1.60;99.90;;;;;;5012182;28;20207;-77
2021/12/11 03:19:53;;;;;;;1.80;1.70;;;1.70;99.90;;;;;;5041669;23;20270;-75
2021/12/11 03:22:27;;;;;;;1.40;1.30;;;1.70;99.90;;;;;;5032117;28;20598;-75
2021/12/11 03:24:53;;;;;;;1.43;1.33;;;1.70;99.90;;;;;;5032188;28;20247;-76
2021/12/11 03:27:19;;;;;;;1.30;1.20;;;1.70;99.90;;;;;;5032006;28;20229;-76
2021/12/11 03:29:45;;;;;;;1.40;1.30;;;1.60;99.90;;;;;;5031433;28;20667;-76
2021/12/11 03:32:12;;;;;;;1.53;1.27;;;1.60;99.90;;;;;;5031744;28;20171;-76
2021/12/11 03:34:38;;;;;;;1.53;1.43;;;1.60;99.90;;;;;;5032121;28;20172;-74
2021/12/11 03:37:06;;;;;;;1.27;1.17;;;1.70;99.90;;;;;;5031846;28;20229;-75
2021/12/11 03:39:36;;;;;;;1.50;1.40;;;1.60;99.90;;;;;;5031195;28;20721;-74
2021/12/11 03:42:10;;;;;;;1.43;1.33;;;1.50;99.90;;;;;;5031773;28;20180;-75
2021/12/11 03:44:36;;;;;;;1.60;1.50;;;1.60;99.90;;;;;;5032198;28;20266;-74
2021/12/11 03:47:08;;;;;;;1.60;1.50;;;1.50;99.90;;;;;;5031856;28;20261;-74
2021/12/11 03:49:34;;;;;;;1.60;1.50;;;1.60;99.90;;;;;;5031311;28;20171;-75
2021/12/11 03:52:03;;;;;;;1.70;1.60;;;1.60;99.90;;;;;;5031716;28;20175;-75
2021/12/11 03:54:31;;;;;;;1.83;1.70;;;1.50;99.90;;;;;;5032402;28;20172;-75
2021/12/11 03:56:57;;;;;;;1.70;1.60;;;1.50;99.90;;;;;;5035585;28;20555;-75
2021/12/11 03:59:24;;;;;;;2.40;1.70;;;1.50;99.90;;;;;;5034896;28;20267;-75
2021/12/11 04:01:56;;;;;;;2.50;1.87;;;1.60;99.90;;;;;;5035903;28;20172;-74
2021/12/11 04:04:26;;;;;;;1.80;1.70;;;1.60;99.90;;;;;;5035605;28;20183;-74
2021/12/11 04:06:52;;;;;;;2.13;2.00;;;1.60;99.90;;;;;;5035574;28;20206;-74
2021/12/11 04:09:19;;;;;;;2.30;2.10;;;1.60;99.90;;;;;;5035350;28;20262;-74
2021/12/11 04:11:46;;;;;;;2.60;2.40;;;1.60;99.90;;;;;;5034861;28;20204;-74
2021/12/11 04:14:19;;;;;;;3.00;2.43;;;1.60;99.90;;;;;;5035310;28;20685;-74
2021/12/11 04:16:47;;;;;;;2.50;2.30;;;1.70;99.90;;;;;;5035506;28;20187;-75
2021/12/11 04:19:13;;;;;;;3.60;2.93;;;1.70;99.90;;;;;;5034703;28;20180;-75
2021/12/11 04:21:40;;;;;;;3.30;3.00;;;1.70;99.90;;;;;;5034994;28;20239;-75
2021/12/11 04:24:09;;;;;;;3.60;3.30;;;1.80;99.90;;;;;;5035555;28;20184;-75
2021/12/11 04:26:35;;;;;;;3.27;3.07;;;1.70;99.90;;;;;;5034861;28;20295;-75
2021/12/11 04:29:02;;;;;;;3.70;3.40;;;1.80;99.90;;;;;;5035228;28;20233;-74
2021/12/11 04:31:30;;;;;;;3.40;3.17;;;1.80;99.90;;;;;;5034447;28;20656;-75
2021/12/11 04:33:59;;;;;;;3.60;3.30;;;1.70;99.90;;;;;;5035096;28;20186;-74
2021/12/11 04:36:31;;;;;;;3.30;3.10;;;1.70;99.90;;;;;;5034846;28;20274;-74
2021/12/11 04:39:00;;;;;;;3.60;3.30;;;1.70;99.90;;;;;;5034674;28;20266;-75
2021/12/11 04:41:35;;;;;;;3.70;3.30;;;1.70;99.90;;;;;;5034447;28;20276;-75
2021/12/11 04:44:06;;;;;;;3.60;3.30;;;1.70;99.90;;;;;;5034873;28;20183;-75
2021/12/11 04:46:31;;;;;;;3.50;3.20;;;1.70;99.90;;;;;;5034739;28;20207;-74
2021/12/11 04:49:07;;;;;;;4.10;3.80;;;1.70;99.90;;;;;;5034827;28;20188;-74
2021/12/11 04:51:47;;;;;;;3.70;3.40;;;1.70;99.90;;;;;;5033752;28;20253;-75
2021/12/11 04:59:43;;;;;;;4.17;3.83;;;1.70;99.90;;;;;;5034465;28;20262;-74
2021/12/11 05:07:55;;;;;;;3.60;3.30;;;1.70;99.90;;;;;;5034224;28;20227;-75
2021/12/11 05:10:34;;;;;;;3.70;3.43;;;1.70;99.90;;;;;;5033866;28;20230;-75
2021/12/11 05:13:01;;;;;;;3.77;3.47;;;1.70;99.90;;;;;;5033312;28;20184;-76
2021/12/11 05:15:43;;;;;;;4.33;3.93;;;1.70;99.90;;;;;;5033753;28;20204;-76
2021/12/11 05:18:14;;;;;;;4.47;4.07;;;1.70;99.90;;;;;;5032840;28;20241;-75
2021/12/11 05:20:43;;;;;;;6.90;4.60;;;1.80;99.90;;;;;;5030736;28;20207;-75
2021/12/11 05:23:08;;;;;;;4.80;4.40;;;1.80;99.90;;;;;;5033684;28;20259;-75
2021/12/11 05:25:34;;;;;;;4.97;4.47;;;1.80;99.90;;;;;;5033603;28;20263;-75
2021/12/11 05:28:00;;;;;;;5.13;4.73;;;1.90;99.90;;;;;;5033613;28;20204;-74
2021/12/11 05:30:33;;;;;;;4.90;4.50;;;1.90;99.90;;;;;;5033325;28;20199;-75
2021/12/11 05:32:59;;;;;;;5.30;4.90;;;1.90;99.90;;;;;;5033795;28;20233;-74
2021/12/11 05:35:26;;;;;;;5.10;4.70;;;1.90;99.90;;;;;;5033803;28;20711;-75
2021/12/11 05:37:53;;;;;;;4.80;4.40;;;1.90;99.90;;;;;;5033775;28;20593;-75
2021/12/11 05:40:21;;;;;;;5.00;4.47;;;1.80;99.90;;;;;;5033213;28;20196;-75
2021/12/11 05:42:48;;;;;;;5.27;4.77;;;1.80;99.90;;;;;;5033785;28;20184;-74
2021/12/11 05:45:14;;;;;;;4.90;4.50;;;1.80;99.90;;;;;;5033480;28;20176;-74
2021/12/11 05:47:40;;;;;;;5.37;4.90;;;1.80;99.90;;;;;;5033463;28;20211;-75
2021/12/11 05:50:09;;;;;;;5.10;4.70;;;1.90;99.90;;;;;;5033188;28;20192;-74
2021/12/11 05:52:35;;;;;;;5.07;4.67;;;1.80;99.90;;;;;;5033565;28;20188;-74
2021/12/11 05:55:01;;;;;;;5.20;4.80;;;1.80;99.90;;;;;;5033519;28;20176;-75
2021/12/11 05:57:28;;;;;;;5.70;5.00;;;1.80;99.90;;;;;;5033437;28;20176;-74
2021/12/11 05:59:54;;;;;;;4.87;4.47;;;1.80;99.90;;;;;;5032815;28;20273;-74
2021/12/11 06:02:24;;;;;;;4.60;4.20;;;1.80;99.90;;;;;;5032767;28;20712;-74
2021/12/11 06:04:56;;;;;;;4.77;4.33;;;1.80;99.90;;;;;;5033503;28;20207;-75
2021/12/11 06:07:26;;;;;;;5.17;4.67;;;1.80;99.90;;;;;;5033592;28;20203;-75
2021/12/11 06:09:59;;;;;;;5.30;4.80;;;1.80;99.90;;;;;;5033156;28;20202;-74
2021/12/11 06:12:25;;;;;;;5.07;4.60;;;1.90;99.90;;;;;;5033834;28;20172;-74
2021/12/11 06:14:52;;;;;;;5.07;4.67;;;1.80;99.90;;;;;;5033693;28;20560;-74
2021/12/11 06:17:23;;;;;;;4.90;4.40;;;1.90;99.90;;;;;;5032490;28;20176;-74
2021/12/11 06:19:52;;;;;;;4.80;4.40;;;1.80;99.90;;;;;;5032463;28;20219;-74
2021/12/11 06:22:24;;;;;;;6.53;5.93;;;1.80;99.90;;;;;;5032938;28;20175;-75
2021/12/11 06:24:51;;;;;;;4.93;4.53;;;1.90;99.90;;;;;;5032653;28;20176;-74
2021/12/11 06:27:17;;;;;;;4.80;4.40;;;1.90;99.90;;;;;;5032511;28;20212;-74
2021/12/11 06:29:43;;;;;;;4.50;4.10;;;1.90;99.90;;;;;;5032195;28;20322;-73
2021/12/11 06:32:08;;;;;;;4.97;4.57;;;1.90;99.90;;;;;;5032646;28;20559;-74
2021/12/11 06:34:36;;;;;;;5.40;4.90;;;1.90;99.90;;;;;;5033379;28;20192;-74
2021/12/11 06:37:04;;;;;;;4.90;4.50;;;2.00;99.90;;;;;;5032723;28;20183;-74
2021/12/11 06:39:30;;;;;;;5.50;5.00;;;1.90;99.90;;;;;;5032132;28;20180;-74
2021/12/11 06:42:02;;;;;;;5.27;4.83;;;1.90;99.90;;;;;;5032636;28;20176;-74
2021/12/11 06:44:28;;;;;;;7.23;6.33;;;1.90;99.90;;;;;;5032527;28;20168;-72
2021/12/11 06:46:59;;;;;;;6.23;5.63;;;1.90;99.90;;;;;;5039253;28;20332;-72
2021/12/11 06:49:27;;;;;;;5.60;5.10;;;2.10;99.90;;;;;;5044803;28;20301;-71
2021/12/11 06:51:53;;;;;;;5.60;5.00;;;2.10;99.90;;;;;;5051906;28;20175;-72
2021/12/11 06:54:18;;;;;;;5.60;5.10;;;2.30;99.90;;;;;;5051962;28;20262;-72
2021/12/11 06:56:44;;;;;;;5.40;4.90;;;2.40;99.90;;;;;;5052134;28;20282;-72
2021/12/11 06:59:11;;;;;;;4.93;4.50;;;2.30;99.90;;;;;;5051812;28;20179;-71
2021/12/11 07:01:37;;;;;;;4.40;4.00;;;2.70;99.90;;;;;;5051685;28;20205;-74
2021/12/11 07:04:06;;;;;;;5.10;4.60;;;2.70;99.90;;;;;;5051785;28;20171;-74
2021/12/11 07:06:33;;;;;;;5.30;4.80;;;2.60;99.90;;;;;;5051718;28;20179;-75
2021/12/11 07:09:00;;;;;;;5.37;4.87;;;2.30;99.90;;;;;;5052034;28;20183;-74
2021/12/11 07:11:26;;;;;;;6.73;5.00;;;2.30;99.90;;;;;;5051674;28;20218;-74
2021/12/11 07:13:51;;;;;;;5.73;5.23;;;2.20;99.90;;;;;;5051963;28;20579;-75
2021/12/11 07:16:17;;;;;;;5.80;5.30;;;2.30;99.90;;;;;;5052214;28;20253;-74
2021/12/11 07:18:44;;;;;;;6.90;6.00;;;2.20;99.90;;;;;;5052340;28;20258;-73
2021/12/11 07:21:09;;;;;;;7.37;6.67;;;2.20;99.90;;;;;;5051971;28;20221;-75
2021/12/11 07:23:36;;;;;;;7.63;6.93;;;2.30;99.90;;;;;;5051680;28;20175;-74
2021/12/11 07:26:15;;;;;;;8.50;7.70;;;2.30;99.90;;;;;;5060669;28;20191;-75
2021/12/11 07:28:44;;;;;;;9.30;8.10;;;2.40;99.90;;;;;;5064780;28;20222;-75
2021/12/11 07:31:10;;;;;;;9.03;7.87;;;2.30;99.90;;;;;;5058746;28;20199;-75
2021/12/11 07:33:36;;;;;;;9.00;8.10;;;2.30;99.90;;;;;;5052041;28;20183;-75
2021/12/11 07:36:02;;;;;;;9.33;8.43;;;2.10;99.90;;;;;;5022025;28;20183;-76
2021/12/11 07:38:28;;;;;;;9.30;8.30;;;2.20;99.90;;;;;;5011616;28;20181;-75
2021/12/11 07:40:57;;;;;;;9.73;8.50;;;2.20;99.90;;;;;;5013459;28;20560;-75
2021/12/11 07:43:26;;;;;;;8.83;8.00;;;2.20;99.90;;;;;;5019152;28;20267;-75
2021/12/11 07:45:52;;;;;;;10.53;9.47;;;2.20;99.90;;;;;;5010920;28;20200;-75
2021/12/11 07:48:18;;;;;;;9.93;8.80;;;2.40;99.90;;;;;;5011206;28;20222;-75
2021/12/11 07:50:45;;;;;;;9.73;8.83;;;2.30;99.90;;;;;;5010474;28;20196;-75
2021/12/11 07:53:12;;;;;;;9.50;8.60;;;2.40;99.90;;;;;;5011989;28;20183;-75
2021/12/11 07:55:38;;;;;;;9.13;8.20;;;2.40;99.90;;;;;;5011153;28;20188;-75
2021/12/11 07:58:06;;;;;;;10.67;8.87;;;2.30;99.90;;;;;;5011354;28;20256;-75
2021/12/11 08:00:33;;;;;;;10.70;9.60;;;2.30;99.90;;;;;;5012986;28;20246;-76
2021/12/11 08:03:00;;;;;;;10.00;8.70;;;2.30;99.90;;;;;;5013632;28;20184;-75
2021/12/11 08:05:28;;;;;;;10.43;9.33;;;2.30;99.90;;;;;;5011034;28;20189;-75
2021/12/11 08:07:54;;;;;;;11.37;8.90;;;2.30;99.90;;;;;;5016329;28;20212;-75
2021/12/11 08:10:23;;;;;;;10.40;9.30;;;2.30;99.90;;;;;;5010833;28;20792;-74
2021/12/11 08:12:49;;;;;;;11.37;10.27;;;2.40;99.90;;;;;;5011228;28;20185;-75
2021/12/11 08:15:16;;;;;;;13.17;10.27;;;2.50;99.90;;;;;;5011417;28;20184;-74
2021/12/11 08:17:42;;;;;;;11.13;10.00;;;2.60;99.90;;;;;;5011242;28;20190;-75
2021/12/11 08:20:11;;;;;;;10.23;9.07;;;2.50;99.90;;;;;;5010673;28;20224;-75
2021/12/11 08:22:38;;;;;;;10.83;9.60;;;2.50;99.90;;;;;;5011342;28;20185;-74
2021/12/11 08:25:05;;;;;;;11.07;9.80;;;2.50;99.90;;;;;;5011265;28;20177;-74
2021/12/11 08:27:31;;;;;;;12.57;10.77;;;2.50;99.90;;;;;;5011102;28;20262;-74
2021/12/11 08:29:58;;;;;;;12.00;10.67;;;2.50;99.90;;;;;;5010779;28;20665;-75
2021/12/11 08:32:25;;;;;;;11.07;9.87;;;2.50;99.90;;;;;;5011185;28;20272;-75
2021/12/11 08:34:52;;;;;;;12.40;9.80;;;2.50;99.90;;;;;;5011428;28;20184;-75
2021/12/11 08:37:21;;;;;;;12.03;10.80;;;2.50;99.90;;;;;;5011253;28;20561;-75
2021/12/11 08:39:47;;;;;;;13.50;10.47;;;2.50;99.90;;;;;;5010563;28;20192;-75
2021/12/11 08:42:18;;;;;;;16.73;12.20;;;2.40;99.90;;;;;;5014423;28;20183;-75
2021/12/11 08:44:51;;;;;;;15.70;12.03;;;2.40;99.90;;;;;;5014549;28;20251;-75
2021/12/11 08:57:28;;;;;;;13.27;10.53;;;2.50;99.90;;;;;;5012998;28;20219;-75
2021/12/11 08:59:58;;;;;;;13.73;11.67;;;2.50;99.90;;;;;;5014092;28;20205;-76
2021/12/11 09:02:28;;;;;;;13.40;11.20;;;2.60;99.90;;;;;;5014550;28;20196;-74
2021/12/11 09:05:10;;;;;;;15.47;11.67;;;2.50;99.90;;;;;;5014576;28;20242;-75
2021/12/11 09:07:49;;;;;;;13.17;11.37;;;2.60;99.90;;;;;;5014856;28;20230;-75
2021/12/11 09:10:19;;;;;;;12.60;10.93;;;2.70;99.90;;;;;;5013777;28;20223;-74
2021/12/11 09:12:53;;;;;;;15.07;11.60;;;2.60;99.90;;;;;;5013918;28;20250;-75
2021/12/11 09:15:22;;;;;;;12.10;10.73;;;2.60;99.90;;;;;;5013992;28;20237;-75
2021/12/11 09:17:55;;;;;;;13.90;11.00;;;2.50;99.90;;;;;;5014412;28;20271;-75
2021/12/11 09:20:37;;;;;;;14.10;11.67;;;2.50;99.90;;;;;;5013441;28;20227;-75
2021/12/11 09:23:18;;;;;;;14.17;11.43;;;2.50;99.90;;;;;;5029623;23;20224;-79
2021/12/11 09:26:00;;;;;;;15.70;12.67;;;2.60;99.90;;;;;;5015849;28;20334;-77
2021/12/11 09:28:32;;;;;;;14.87;13.17;;;2.60;99.90;;;;;;5016417;28;20224;-76
2021/12/11 09:31:23;;;;;;;16.27;13.37;;;2.60;99.90;;;;;;5012934;28;20200;-78
2021/12/11 09:33:59;;;;;;;14.80;12.37;;;2.70;99.90;;;;;;5000106;28;20508;-75
2021/12/11 09:36:33;;;;;;;15.47;13.13;;;2.70;99.90;;;;;;5019622;28;20262;-78
2021/12/11 09:39:23;;;;;;;16.50;13.43;;;2.70;99.90;;;;;;4997772;28;20212;-75
2021/12/11 09:41:48;;;;;;;15.93;13.17;;;2.70;99.90;;;;;;5012249;28;20180;-76
2021/12/11 09:44:21;;;;;;;15.03;12.93;;;2.80;99.90;;;;;;5016766;28;20180;-75
2021/12/11 09:47:00;;;;;;;18.20;13.70;;;2.80;99.90;;;;;;5013604;28;20181;-76
2021/12/11 09:49:31;;;;;;;14.53;12.37;;;2.90;99.90;;;;;;5012750;28;20199;-75
2021/12/11 09:52:13;;;;;;;17.23;12.47;;;3.00;99.90;;;;;;5014372;28;20176;-76
2021/12/11 09:54:39;;;;;;;14.83;13.27;;;3.00;99.90;;;;;;5013317;28;20185;-75
2021/12/11 09:57:13;;;;;;;14.23;12.13;;;3.10;99.90;;;;;;5013807;28;20198;-76
2021/12/11 09:59:42;;;;;;;16.27;12.63;;;3.10;99.90;;;;;;5013124;28;20175;-75
2021/12/11 10:02:13;;;;;;;15.27;12.67;;;3.20;99.90;;;;;;5013841;28;20557;-76
2021/12/11 10:04:47;;;;;;;13.80;11.50;;;3.30;99.90;;;;;;5013568;28;20614;-77
2021/12/11 10:09:53;;;;;;;10.40;8.80;;;3.40;99.90;;;;;;5014482;28;20191;-76
2021/12/11 10:12:25;;;;;;;10.67;9.53;;;3.40;99.90;;;;;;5018628;28;20668;-75
2021/12/11 10:14:55;;;;;;;11.87;10.07;;;3.50;92.20;;;;;;5030924;28;20183;-75
2021/12/11 10:17:47;;;;;;;11.10;9.10;;;3.50;83.00;;;;;;5014468;28;20266;-76
2021/12/11 10:20:22;;;;;;;11.33;9.27;;;3.60;18.20;;;;;;5003663;28;20266;-74
2021/12/11 10:22:50;;;;;;;10.73;9.63;;;3.60;30.60;;;;;;5013355;28;20192;-75
2021/12/11 10:25:20;;;;;;;10.23;8.73;;;3.70;18.60;;;;;;5013287;28;20216;-76
2021/12/11 10:27:46;;;;;;;9.67;8.67;;;3.70;7.90;;;;;;5013093;28;20216;-76
2021/12/11 10:30:15;;;;;;;11.07;8.80;;;3.80;1.00;;;;;;5012249;28;20196;-76
2021/12/11 10:32:41;;;;;;;8.90;8.00;;;3.90;1.00;;;;;;5013190;28;20176;-77
2021/12/11 10:35:13;;;;;;;9.43;7.83;;;3.70;1.00;;;;;;5012811;28;20184;-75
2021/12/11 10:37:40;;;;;;;8.87;6.80;;;3.80;1.00;;;;;;5012659;28;20667;-75
2021/12/11 10:40:14;;;;;;;10.40;7.77;;;3.90;1.00;;;;;;5012178;28;20200;-76
2021/12/11 10:42:41;;;;;;;8.50;7.60;;;4.00;1.00;;;;;;5012575;28;20184;-75
2021/12/11 10:45:10;;;;;;;8.30;7.47;;;4.00;1.00;;;;;;5013047;28;20180;-75
2021/12/11 10:47:42;;;;;;;7.93;6.00;;;4.10;1.00;;;;;;5012344;28;20223;-75
2021/12/11 10:50:17;;;;;;;7.40;6.70;;;4.00;1.00;;;;;;5010906;28;20613;-75
2021/12/11 10:52:43;;;;;;;9.33;7.90;;;4.00;1.00;;;;;;5011412;28;20604;-75
2021/12/11 10:55:12;;;;;;;8.63;6.90;;;4.20;1.00;;;;;;5012626;28;20177;-77
2021/12/11 10:57:38;;;;;;;9.23;7.40;;;4.30;1.00;;;;;;5013243;28;20209;-77
2021/12/11 11:00:10;;;;;;;8.77;6.63;;;4.20;1.00;;;;;;5012634;28;20704;-75
2021/12/11 11:02:36;;;;;;;8.67;7.07;;;4.10;1.00;;;;;;5012381;28;20254;-76
2021/12/11 11:05:08;;;;;;;7.20;6.50;;;4.30;1.00;;;;;;5011545;28;20177;-74
2021/12/11 11:07:36;;;;;;;8.33;7.00;;;4.40;1.00;;;;;;5012618;28;20211;-75
2021/12/11 11:10:05;;;;;;;8.53;6.43;;;4.40;1.00;;;;;;5011797;28;20205;-76
2021/12/11 11:12:31;;;;;;;7.53;6.53;;;4.40;1.00;;;;;;5012415;28;20180;-75
2021/12/11 11:14:57;;;;;;;7.27;6.57;;;4.40;1.00;;;;;;5012263;28;20691;-74
2021/12/11 11:17:28;;;;;;;8.77;6.07;;;4.50;1.00;;;;;;5012357;28;20180;-74
2021/12/11 11:19:55;;;;;;;6.63;6.03;;;4.50;1.00;;;;;;5011415;28;20243;-74
2021/12/11 11:22:25;;;;;;;7.10;6.10;;;4.50;1.00;;;;;;5011966;28;20219;-74
2021/12/11 11:25:03;;;;;;;7.37;6.17;;;4.40;99.90;;;;;;5011874;28;20280;-73
2021/12/11 11:27:28;;;;;;;6.73;5.67;;;4.40;1.00;;;;;;5011989;28;20218;-76
2021/12/11 11:29:54;;;;;;;6.20;5.60;;;4.40;1.00;;;;;;5023581;28;20188;-75
2021/12/11 11:32:34;;;;;;;7.00;5.70;;;4.40;99.90;;;;;;5014023;28;20171;-75
2021/12/11 11:35:05;;;;;;;6.73;5.33;;;4.40;1.00;;;;;;5031784;28;20203;-76
2021/12/11 11:37:34;;;;;;;5.67;5.17;;;4.20;99.90;;;;;;5031695;28;20183;-76
2021/12/11 11:40:00;;;;;;;6.83;5.53;;;4.20;99.90;;;;;;5026295;28;20257;-76
2021/12/11 11:42:26;;;;;;;7.70;6.90;;;4.20;99.90;;;;;;5014103;28;20184;-77
2021/12/11 11:44:52;;;;;;;6.57;5.93;;;4.20;99.90;;;;;;5012862;28;20177;-75
2021/12/11 11:47:19;;;;;;;7.10;6.20;;;4.40;1.00;;;;;;5012827;28;20255;-75
2021/12/11 11:49:45;;;;;;;6.53;5.83;;;4.30;23.50;;;;;;5012468;28;20197;-74
2021/12/11 11:52:15;;;;;;;6.60;5.47;;;4.30;99.90;;;;;;5012073;28;20178;-74
2021/12/11 11:54:43;;;;;;;6.40;5.80;;;4.30;99.90;;;;;;5012523;28;20207;-74
2021/12/11 11:57:25;;;;;;;6.10;5.13;;;4.20;99.90;;;;;;5012014;28;20553;-75
2021/12/11 11:59:53;;;;;;;5.33;4.83;;;4.00;1.00;;;;;;5011247;28;20193;-74
2021/12/11 12:02:23;;;;;;;7.27;5.10;;;4.00;1.00;;;;;;5011505;28;20536;-75
2021/12/11 12:04:52;;;;;;;5.17;4.50;;;3.90;1.00;;;;;;5011399;28;20172;-74
2021/12/11 12:07:24;;;;;;;6.60;4.80;;;3.90;99.90;;;;;;5011503;28;20271;-74
2021/12/11 12:09:51;;;;;;;6.93;4.67;;;3.80;1.00;;;;;;5011514;28;20665;-76
2021/12/11 12:12:17;;;;;;;5.63;4.70;;;3.80;1.00;;;;;;5011778;28;20185;-74
2021/12/11 12:14:44;;;;;;;5.43;4.67;;;3.80;1.00;;;;;;5011738;28;20258;-74
2021/12/11 12:17:13;;;;;;;5.47;4.90;;;3.80;1.00;;;;;;5014911;28;20563;-73
2021/12/11 12:19:39;;;;;;;7.07;5.50;;;3.80;1.00;;;;;;5015258;28;20234;-76
2021/12/11 12:22:07;;;;;;;5.60;5.00;;;3.90;1.00;;;;;;5011748;28;20194;-74
2021/12/11 12:24:36;;;;;;;5.80;4.60;;;3.80;1.00;;;;;;4995672;28;20185;-74
2021/12/11 12:27:06;;;;;;;5.50;4.80;;;3.70;1.00;;;;;;4977905;28;20212;-73
2021/12/11 12:29:32;;;;;;;6.57;5.03;;;3.80;1.00;;;;;;4995154;28;20673;-73
2021/12/11 12:32:03;;;;;;;5.83;5.23;;;3.80;1.00;;;;;;4995460;28;20181;-75
2021/12/11 12:34:29;;;;;;;7.80;5.40;;;3.70;1.00;;;;;;4995557;28;20185;-75
2021/12/11 12:36:57;;;;;;;6.90;5.50;;;3.80;17.70;;;;;;4995776;28;20385;-74
2021/12/11 12:39:27;;;;;;;7.00;5.73;;;3.90;41.30;;;;;;5009411;28;20202;-74
2021/12/11 12:42:05;;;;;;;7.43;5.23;;;3.90;99.90;;;;;;5015136;28;20176;-74
2021/12/11 12:44:33;;;;;;;8.40;5.67;;;3.90;1.00;;;;;;5015423;28;20566;-74
2021/12/11 12:47:25;;;;;;;6.03;5.43;;;3.90;99.90;;;;;;5014855;28;20291;-74
2021/12/11 12:49:53;;;;;;;6.47;5.40;;;3.90;1.00;;;;;;5003805;28;20209;-76
2021/12/11 12:52:25;;;;;;;6.77;5.77;;;4.00;1.00;;;;;;5015143;28;20544;-75
2021/12/11 12:54:51;;;;;;;7.10;5.40;;;3.90;1.00;;;;;;5014189;28;20181;-77
2021/12/11 12:57:35;;;;;;;5.87;5.27;;;4.00;1.00;;;;;;5015028;28;20176;-75
2021/12/11 13:00:31;;;;;;;6.53;5.90;;;4.20;1.00;;;;;;5014076;28;20661;-75
2021/12/11 13:03:04;;;;;;;6.23;5.43;;;4.20;1.00;;;;;;5014512;28;20187;-74
2021/12/11 13:05:43;;;;;;;7.07;5.97;;;4.10;99.90;;;;;;5014855;28;20191;-74
2021/12/11 13:08:19;;;;;;;6.03;5.43;;;4.20;99.90;;;;;;5014597;28;20236;-75
2021/12/11 13:10:51;;;;;;;7.13;5.00;;;4.10;1.00;;;;;;5014345;28;20200;-74
2021/12/11 13:13:19;;;;;;;5.90;4.13;;;4.10;1.00;;;;;;4996994;28;20184;-74
2021/12/11 13:15:49;;;;;;;4.40;3.83;;;4.00;1.00;;;;;;5014380;28;20172;-75
2021/12/11 13:18:17;;;;;;;5.60;4.53;;;4.00;15.40;;;;;;5014460;28;20192;-75
2021/12/11 13:20:46;;;;;;;4.40;3.80;;;3.90;99.90;;;;;;5013848;28;20247;-74
2021/12/11 13:23:12;;;;;;;4.40;3.80;;;4.00;99.90;;;;;;5014008;28;20267;-74
2021/12/11 13:25:44;;;;;;;4.93;4.43;;;4.00;99.90;;;;;;5014244;28;20205;-75
2021/12/11 13:28:14;;;;;;;5.83;4.73;;;3.90;99.90;;;;;;5013856;28;20681;-75
2021/12/11 13:30:47;;;;;;;5.10;4.57;;;4.00;1.00;;;;;;5013644;28;20592;-74
2021/12/11 13:33:16;;;;;;;4.70;4.20;;;4.00;1.00;;;;;;5014159;28;20259;-74
2021/12/11 13:35:43;;;;;;;5.40;4.33;;;4.00;99.90;;;;;;5014279;28;20172;-75